sensor_id;sensor_type;location;lat;lon;timestamp;temperature;humidity
60027;DHT22;45891;53.006;6.512;2023-04-06T00:00:37;2.70;94.30
60027;DHT22;45891;53.006;6.512;2023-04-06T00:03:03;2.70;94.40
60027;DHT22;45891;53.006;6.512;2023-04-06T00:05:29;2.60;94.50
60027;DHT22;45891;53.006;6.512;2023-04-06T00:07:59;2.60;94.60
60027;DHT22;45891;53.006;6.512;2023-04-06T00:10:25;2.60;94.70
60027;DHT22;45891;53.006;6.512;2023-04-06T00:12:52;2.50;94.70
60027;DHT22;45891;53.006;6.512;2023-04-06T00:15:18;2.40;94.70
60027;DHT22;45891;53.006;6.512;2023-04-06T00:17:44;2.30;94.80
60027;DHT22;45891;53.006;6.512;2023-04-06T00:20:10;2.30;95.00
60027;DHT22;45891;53.006;6.512;2023-04-06T00:22:36;2.30;95.20
60027;DHT22;45891;53.006;6.512;2023-04-06T00:25:02;2.20;95.30
60027;DHT22;45891;53.006;6.512;2023-04-06T00:27:28;2.20;95.40
60027;DHT22;45891;53.006;6.512;2023-04-06T00:29:54;2.10;95.50
60027;DHT22;45891;53.006;6.512;2023-04-06T00:32:19;2.10;95.60
60027;DHT22;45891;53.006;6.512;2023-04-06T00:34:45;2.10;95.80
60027;DHT22;45891;53.006;6.512;2023-04-06T00:37:11;2.00;95.80
60027;DHT22;45891;53.006;6.512;2023-04-06T00:39:37;2.00;96.00
60027;DHT22;45891;53.006;6.512;2023-04-06T00:42:07;2.00;96.00
60027;DHT22;45891;53.006;6.512;2023-04-06T00:44:34;1.90;96.00
60027;DHT22;45891;53.006;6.512;2023-04-06T00:47:00;1.90;96.20
60027;DHT22;45891;53.006;6.512;2023-04-06T00:49:26;1.90;96.30
60027;DHT22;45891;53.006;6.512;2023-04-06T00:51:52;1.90;96.50
60027;DHT22;45891;53.006;6.512;2023-04-06T00:54:18;1.80;96.40
60027;DHT22;45891;53.006;6.512;2023-04-06T00:56:44;1.80;96.50
60027;DHT22;45891;53.006;6.512;2023-04-06T00:59:11;1.80;96.60
60027;DHT22;45891;53.006;6.512;2023-04-06T01:01:37;1.70;96.80
60027;DHT22;45891;53.006;6.512;2023-04-06T01:04:03;1.70;96.90
60027;DHT22;45891;53.006;6.512;2023-04-06T01:06:29;1.70;97.00
60027;DHT22;45891;53.006;6.512;2023-04-06T01:08:55;1.60;97.00
60027;DHT22;45891;53.006;6.512;2023-04-06T01:11:21;1.60;97.20
60027;DHT22;45891;53.006;6.512;2023-04-06T01:13:47;1.60;97.40
60027;DHT22;45891;53.006;6.512;2023-04-06T01:16:13;1.60;97.50
60027;DHT22;45891;53.006;6.512;2023-04-06T01:18:39;1.60;97.50
60027;DHT22;45891;53.006;6.512;2023-04-06T01:21:05;1.60;97.80
60027;DHT22;45891;53.006;6.512;2023-04-06T01:23:31;1.60;97.80
60027;DHT22;45891;53.006;6.512;2023-04-06T01:25:57;1.50;97.80
60027;DHT22;45891;53.006;6.512;2023-04-06T01:28:23;1.50;97.90
60027;DHT22;45891;53.006;6.512;2023-04-06T01:30:49;1.50;98.00
60027;DHT22;45891;53.006;6.512;2023-04-06T01:33:15;1.50;98.20
60027;DHT22;45891;53.006;6.512;2023-04-06T01:35:41;1.50;98.30
60027;DHT22;45891;53.006;6.512;2023-04-06T01:38:07;1.50;98.40
60027;DHT22;45891;53.006;6.512;2023-04-06T01:40:33;1.50;98.50
60027;DHT22;45891;53.006;6.512;2023-04-06T01:42:58;1.50;98.60
60027;DHT22;45891;53.006;6.512;2023-04-06T01:45:25;1.50;98.70
60027;DHT22;45891;53.006;6.512;2023-04-06T01:47:51;1.50;99.00
60027;DHT22;45891;53.006;6.512;2023-04-06T01:50:16;1.60;98.90
60027;DHT22;45891;53.006;6.512;2023-04-06T01:52:42;1.60;99.00
60027;DHT22;45891;53.006;6.512;2023-04-06T01:55:08;1.60;99.00
60027;DHT22;45891;53.006;6.512;2023-04-06T01:57:34;1.70;99.00
60027;DHT22;45891;53.006;6.512;2023-04-06T02:00:00;1.60;98.80
60027;DHT22;45891;53.006;6.512;2023-04-06T02:02:26;1.60;99.00
60027;DHT22;45891;53.006;6.512;2023-04-06T02:04:52;1.60;99.00
60027;DHT22;45891;53.006;6.512;2023-04-06T02:07:18;1.60;99.10
60027;DHT22;45891;53.006;6.512;2023-04-06T02:09:44;1.60;99.00
60027;DHT22;45891;53.006;6.512;2023-04-06T02:12:10;1.60;99.10
60027;DHT22;45891;53.006;6.512;2023-04-06T02:14:36;1.60;99.20
60027;DHT22;45891;53.006;6.512;2023-04-06T02:17:02;1.50;99.20
60027;DHT22;45891;53.006;6.512;2023-04-06T02:19:27;1.50;99.30
60027;DHT22;45891;53.006;6.512;2023-04-06T02:21:53;1.50;99.20
60027;DHT22;45891;53.006;6.512;2023-04-06T02:24:19;1.50;99.20
60027;DHT22;45891;53.006;6.512;2023-04-06T02:26:45;1.50;99.30
60027;DHT22;45891;53.006;6.512;2023-04-06T02:29:11;1.40;99.40
60027;DHT22;45891;53.006;6.512;2023-04-06T02:31:37;1.40;99.50
60027;DHT22;45891;53.006;6.512;2023-04-06T02:34:03;1.40;99.50
60027;DHT22;45891;53.006;6.512;2023-04-06T02:36:29;1.40;99.70
60027;DHT22;45891;53.006;6.512;2023-04-06T02:38:55;1.40;99.60
60027;DHT22;45891;53.006;6.512;2023-04-06T02:41:21;1.40;99.60
60027;DHT22;45891;53.006;6.512;2023-04-06T02:43:47;1.40;99.60
60027;DHT22;45891;53.006;6.512;2023-04-06T02:46:13;1.40;99.60
60027;DHT22;45891;53.006;6.512;2023-04-06T02:48:39;1.40;99.60
60027;DHT22;45891;53.006;6.512;2023-04-06T02:51:05;1.40;99.70
60027;DHT22;45891;53.006;6.512;2023-04-06T02:53:31;1.40;99.70
60027;DHT22;45891;53.006;6.512;2023-04-06T02:55:57;1.40;99.70
60027;DHT22;45891;53.006;6.512;2023-04-06T02:58:23;1.40;99.70
60027;DHT22;45891;53.006;6.512;2023-04-06T03:00:49;1.40;99.90
60027;DHT22;45891;53.006;6.512;2023-04-06T03:03:15;1.30;99.90
60027;DHT22;45891;53.006;6.512;2023-04-06T03:05:41;1.30;99.90
60027;DHT22;45891;53.006;6.512;2023-04-06T03:08:07;1.30;99.80
60027;DHT22;45891;53.006;6.512;2023-04-06T03:10:33;1.30;99.90
60027;DHT22;45891;53.006;6.512;2023-04-06T03:12:58;1.30;99.90
60027;DHT22;45891;53.006;6.512;2023-04-06T03:15:24;1.30;99.90
60027;DHT22;45891;53.006;6.512;2023-04-06T03:17:50;1.30;99.90
60027;DHT22;45891;53.006;6.512;2023-04-06T03:20:16;1.30;99.90
60027;DHT22;45891;53.006;6.512;2023-04-06T03:22:42;1.20;99.90
60027;DHT22;45891;53.006;6.512;2023-04-06T03:25:08;1.20;99.90
60027;DHT22;45891;53.006;6.512;2023-04-06T03:27:34;1.20;99.90
60027;DHT22;45891;53.006;6.512;2023-04-06T03:30:00;1.20;99.90
60027;DHT22;45891;53.006;6.512;2023-04-06T03:32:26;1.20;99.90
60027;DHT22;45891;53.006;6.512;2023-04-06T03:34:52;1.10;99.90
60027;DHT22;45891;53.006;6.512;2023-04-06T03:37:18;1.10;99.90
60027;DHT22;45891;53.006;6.512;2023-04-06T03:39:44;1.00;99.90
60027;DHT22;45891;53.006;6.512;2023-04-06T03:42:10;1.00;99.90
60027;DHT22;45891;53.006;6.512;2023-04-06T03:44:36;1.10;99.90
60027;DHT22;45891;53.006;6.512;2023-04-06T03:47:02;1.10;99.90
60027;DHT22;45891;53.006;6.512;2023-04-06T03:49:28;1.00;99.90
60027;DHT22;45891;53.006;6.512;2023-04-06T03:51:55;1.00;99.90
60027;DHT22;45891;53.006;6.512;2023-04-06T03:54:21;1.00;99.90
60027;DHT22;45891;53.006;6.512;2023-04-06T03:56:47;1.00;99.90
60027;DHT22;45891;53.006;6.512;2023-04-06T03:59:13;1.00;99.90
60027;DHT22;45891;53.006;6.512;2023-04-06T04:01:39;1.00;99.90
60027;DHT22;45891;53.006;6.512;2023-04-06T04:04:05;1.00;99.90
60027;DHT22;45891;53.006;6.512;2023-04-06T04:06:31;1.00;99.90
60027;DHT22;45891;53.006;6.512;2023-04-06T04:08:57;0.90;99.90
60027;DHT22;45891;53.006;6.512;2023-04-06T04:11:23;1.00;99.90
60027;DHT22;45891;53.006;6.512;2023-04-06T04:13:49;0.90;99.90
60027;DHT22;45891;53.006;6.512;2023-04-06T04:16:15;1.00;99.90
60027;DHT22;45891;53.006;6.512;2023-04-06T04:18:41;0.90;99.90
60027;DHT22;45891;53.006;6.512;2023-04-06T04:21:09;1.00;99.90
60027;DHT22;45891;53.006;6.512;2023-04-06T04:23:35;0.90;99.90
60027;DHT22;45891;53.006;6.512;2023-04-06T04:26:00;0.90;99.90
60027;DHT22;45891;53.006;6.512;2023-04-06T04:28:26;0.90;99.90
60027;DHT22;45891;53.006;6.512;2023-04-06T04:30:52;0.90;99.90
60027;DHT22;45891;53.006;6.512;2023-04-06T04:33:18;0.90;99.90
60027;DHT22;45891;53.006;6.512;2023-04-06T04:35:44;0.90;99.90
60027;DHT22;45891;53.006;6.512;2023-04-06T04:38:10;0.90;99.90
60027;DHT22;45891;53.006;6.512;2023-04-06T04:40:36;0.90;99.90
60027;DHT22;45891;53.006;6.512;2023-04-06T04:43:02;0.80;99.90
60027;DHT22;45891;53.006;6.512;2023-04-06T04:45:28;0.90;99.90
60027;DHT22;45891;53.006;6.512;2023-04-06T04:47:54;0.90;99.90
60027;DHT22;45891;53.006;6.512;2023-04-06T04:50:20;0.80;99.90
60027;DHT22;45891;53.006;6.512;2023-04-06T04:52:46;0.90;99.90
60027;DHT22;45891;53.006;6.512;2023-04-06T04:55:12;0.90;99.90
60027;DHT22;45891;53.006;6.512;2023-04-06T04:57:38;0.90;99.90
60027;DHT22;45891;53.006;6.512;2023-04-06T05:00:04;0.90;99.90
60027;DHT22;45891;53.006;6.512;2023-04-06T05:02:31;0.90;99.90
60027;DHT22;45891;53.006;6.512;2023-04-06T05:04:57;0.80;99.90
60027;DHT22;45891;53.006;6.512;2023-04-06T05:07:23;0.90;99.90
60027;DHT22;45891;53.006;6.512;2023-04-06T05:09:49;0.90;99.90
60027;DHT22;45891;53.006;6.512;2023-04-06T05:12:15;0.90;99.90
60027;DHT22;45891;53.006;6.512;2023-04-06T05:14:42;0.90;99.90
60027;DHT22;45891;53.006;6.512;2023-04-06T05:17:08;0.90;99.90
60027;DHT22;45891;53.006;6.512;2023-04-06T05:19:34;0.90;99.90
60027;DHT22;45891;53.006;6.512;2023-04-06T05:22:00;1.00;99.90
60027;DHT22;45891;53.006;6.512;2023-04-06T05:24:26;1.00;99.90
60027;DHT22;45891;53.006;6.512;2023-04-06T05:26:52;1.00;99.90
60027;DHT22;45891;53.006;6.512;2023-04-06T05:29:18;1.10;99.90
60027;DHT22;45891;53.006;6.512;2023-04-06T05:31:44;1.20;99.90
60027;DHT22;45891;53.006;6.512;2023-04-06T05:34:10;1.40;99.90
60027;DHT22;45891;53.006;6.512;2023-04-06T05:36:36;1.60;99.90
60027;DHT22;45891;53.006;6.512;2023-04-06T05:39:02;1.90;99.90
60027;DHT22;45891;53.006;6.512;2023-04-06T05:41:28;2.00;99.90
60027;DHT22;45891;53.006;6.512;2023-04-06T05:43:54;2.20;99.90
60027;DHT22;45891;53.006;6.512;2023-04-06T05:46:21;2.50;99.90
60027;DHT22;45891;53.006;6.512;2023-04-06T05:48:47;2.70;99.90
60027;DHT22;45891;53.006;6.512;2023-04-06T05:51:13;2.90;99.90
60027;DHT22;45891;53.006;6.512;2023-04-06T05:53:38;3.10;99.90
60027;DHT22;45891;53.006;6.512;2023-04-06T05:56:05;3.40;99.90
60027;DHT22;45891;53.006;6.512;2023-04-06T05:58:31;3.60;99.80
60027;DHT22;45891;53.006;6.512;2023-04-06T06:00:59;3.80;99.80
60027;DHT22;45891;53.006;6.512;2023-04-06T06:03:25;4.10;99.10
60027;DHT22;45891;53.006;6.512;2023-04-06T06:05:51;4.30;98.60
60027;DHT22;45891;53.006;6.512;2023-04-06T06:08:17;4.50;98.10
60027;DHT22;45891;53.006;6.512;2023-04-06T06:10:43;4.70;97.60
60027;DHT22;45891;53.006;6.512;2023-04-06T06:13:09;5.00;97.80
60027;DHT22;45891;53.006;6.512;2023-04-06T06:15:35;5.30;97.70
60027;DHT22;45891;53.006;6.512;2023-04-06T06:18:01;5.50;97.60
60027;DHT22;45891;53.006;6.512;2023-04-06T06:20:27;5.80;97.20
60027;DHT22;45891;53.006;6.512;2023-04-06T06:22:53;6.10;97.10
60027;DHT22;45891;53.006;6.512;2023-04-06T06:25:19;6.30;96.70
60027;DHT22;45891;53.006;6.512;2023-04-06T06:27:45;6.40;96.20
60027;DHT22;45891;53.006;6.512;2023-04-06T06:30:11;6.60;96.20
60027;DHT22;45891;53.006;6.512;2023-04-06T06:32:37;6.80;95.70
60027;DHT22;45891;53.006;6.512;2023-04-06T06:35:03;6.90;95.40
60027;DHT22;45891;53.006;6.512;2023-04-06T06:37:29;7.20;95.10
60027;DHT22;45891;53.006;6.512;2023-04-06T06:39:55;7.30;94.80
60027;DHT22;45891;53.006;6.512;2023-04-06T06:42:21;7.50;94.90
60027;DHT22;45891;53.006;6.512;2023-04-06T06:44:47;7.60;94.50
60027;DHT22;45891;53.006;6.512;2023-04-06T06:47:13;7.80;94.50
60027;DHT22;45891;53.006;6.512;2023-04-06T06:49:39;8.00;94.50
60027;DHT22;45891;53.006;6.512;2023-04-06T06:52:05;8.20;94.00
60027;DHT22;45891;53.006;6.512;2023-04-06T06:54:31;8.50;94.10
60027;DHT22;45891;53.006;6.512;2023-04-06T06:56:56;8.70;94.30
60027;DHT22;45891;53.006;6.512;2023-04-06T06:59:22;9.00;94.20
60027;DHT22;45891;53.006;6.512;2023-04-06T07:01:49;9.30;94.50
60027;DHT22;45891;53.006;6.512;2023-04-06T07:04:15;9.60;94.10
60027;DHT22;45891;53.006;6.512;2023-04-06T07:06:41;9.90;93.10
60027;DHT22;45891;53.006;6.512;2023-04-06T07:09:07;10.10;94.00
60027;DHT22;45891;53.006;6.512;2023-04-06T07:11:33;10.40;93.70
60027;DHT22;45891;53.006;6.512;2023-04-06T07:13:59;10.50;92.00
60027;DHT22;45891;53.006;6.512;2023-04-06T07:16:24;10.60;91.90
60027;DHT22;45891;53.006;6.512;2023-04-06T07:18:50;10.70;92.20
60027;DHT22;45891;53.006;6.512;2023-04-06T07:21:16;10.80;91.90
60027;DHT22;45891;53.006;6.512;2023-04-06T07:23:42;10.80;91.40
60027;DHT22;45891;53.006;6.512;2023-04-06T07:26:09;10.90;91.70
60027;DHT22;45891;53.006;6.512;2023-04-06T07:28:35;11.20;91.50
60027;DHT22;45891;53.006;6.512;2023-04-06T07:31:00;11.40;91.90
60027;DHT22;45891;53.006;6.512;2023-04-06T07:33:26;11.70;92.00
60027;DHT22;45891;53.006;6.512;2023-04-06T07:35:56;11.90;90.90
60027;DHT22;45891;53.006;6.512;2023-04-06T07:38:22;12.00;90.90
60027;DHT22;45891;53.006;6.512;2023-04-06T07:40:48;12.10;91.00
60027;DHT22;45891;53.006;6.512;2023-04-06T07:43:14;12.30;90.10
60027;DHT22;45891;53.006;6.512;2023-04-06T07:45:40;12.40;90.50
60027;DHT22;45891;53.006;6.512;2023-04-06T07:48:06;12.50;90.30
60027;DHT22;45891;53.006;6.512;2023-04-06T07:50:32;12.60;89.30
60027;DHT22;45891;53.006;6.512;2023-04-06T07:52:58;12.90;90.60
60027;DHT22;45891;53.006;6.512;2023-04-06T07:55:24;13.10;89.30
60027;DHT22;45891;53.006;6.512;2023-04-06T07:57:49;13.30;88.50
60027;DHT22;45891;53.006;6.512;2023-04-06T08:00:16;13.30;88.00
60027;DHT22;45891;53.006;6.512;2023-04-06T08:02:42;13.60;90.10
60027;DHT22;45891;53.006;6.512;2023-04-06T08:05:08;14.00;89.30
60027;DHT22;45891;53.006;6.512;2023-04-06T08:07:34;14.30;87.20
60027;DHT22;45891;53.006;6.512;2023-04-06T08:10:01;14.40;88.30
60027;DHT22;45891;53.006;6.512;2023-04-06T08:12:27;14.60;86.10
60027;DHT22;45891;53.006;6.512;2023-04-06T08:14:53;14.80;86.30
60027;DHT22;45891;53.006;6.512;2023-04-06T08:17:19;14.90;86.10
60027;DHT22;45891;53.006;6.512;2023-04-06T08:19:45;15.20;85.00
60027;DHT22;45891;53.006;6.512;2023-04-06T08:22:11;15.40;81.10
60027;DHT22;45891;53.006;6.512;2023-04-06T08:24:37;15.50;84.70
60027;DHT22;45891;53.006;6.512;2023-04-06T08:27:03;15.60;82.50
60027;DHT22;45891;53.006;6.512;2023-04-06T08:29:29;15.90;84.90
60027;DHT22;45891;53.006;6.512;2023-04-06T08:31:55;16.10;79.60
60027;DHT22;45891;53.006;6.512;2023-04-06T08:34:22;16.30;81.20
60027;DHT22;45891;53.006;6.512;2023-04-06T08:36:48;16.50;78.90
60027;DHT22;45891;53.006;6.512;2023-04-06T08:39:14;16.60;82.10
60027;DHT22;45891;53.006;6.512;2023-04-06T08:41:43;16.40;80.20
60027;DHT22;45891;53.006;6.512;2023-04-06T08:44:09;16.60;80.30
60027;DHT22;45891;53.006;6.512;2023-04-06T08:46:37;16.90;78.00
60027;DHT22;45891;53.006;6.512;2023-04-06T08:49:03;16.80;77.40
60027;DHT22;45891;53.006;6.512;2023-04-06T08:51:32;16.80;75.20
60027;DHT22;45891;53.006;6.512;2023-04-06T08:53:58;17.00;78.30
60027;DHT22;45891;53.006;6.512;2023-04-06T08:56:25;16.90;76.60
60027;DHT22;45891;53.006;6.512;2023-04-06T08:58:52;17.20;74.70
60027;DHT22;45891;53.006;6.512;2023-04-06T09:01:20;17.40;74.20
60027;DHT22;45891;53.006;6.512;2023-04-06T09:03:47;17.70;76.00
60027;DHT22;45891;53.006;6.512;2023-04-06T09:06:14;17.60;74.40
60027;DHT22;45891;53.006;6.512;2023-04-06T09:08:40;17.10;73.30
60027;DHT22;45891;53.006;6.512;2023-04-06T09:11:06;16.30;72.30
60027;DHT22;45891;53.006;6.512;2023-04-06T09:16:38;14.90;74.20
60027;DHT22;45891;53.006;6.512;2023-04-06T09:19:04;14.60;74.60
60027;DHT22;45891;53.006;6.512;2023-04-06T09:21:31;14.50;74.50
60027;DHT22;45891;53.006;6.512;2023-04-06T09:24:00;14.70;74.10
60027;DHT22;45891;53.006;6.512;2023-04-06T09:26:26;15.30;76.60
60027;DHT22;45891;53.006;6.512;2023-04-06T09:28:53;16.00;72.90
60027;DHT22;45891;53.006;6.512;2023-04-06T09:31:23;16.30;74.70
60027;DHT22;45891;53.006;6.512;2023-04-06T09:33:50;16.50;74.40
60027;DHT22;45891;53.006;6.512;2023-04-06T09:36:17;16.40;74.20
60027;DHT22;45891;53.006;6.512;2023-04-06T09:38:53;16.50;74.50
60027;DHT22;45891;53.006;6.512;2023-04-06T09:43:49;15.80;72.90
60027;DHT22;45891;53.006;6.512;2023-04-06T09:46:15;15.70;73.20
60027;DHT22;45891;53.006;6.512;2023-04-06T09:48:42;15.40;73.40
60027;DHT22;45891;53.006;6.512;2023-04-06T09:51:08;15.20;73.60
60027;DHT22;45891;53.006;6.512;2023-04-06T09:53:35;15.20;74.20
60027;DHT22;45891;53.006;6.512;2023-04-06T09:56:03;14.90;73.10
60027;DHT22;45891;53.006;6.512;2023-04-06T09:58:34;14.70;75.10
60027;DHT22;45891;53.006;6.512;2023-04-06T10:01:07;14.90;74.10
60027;DHT22;45891;53.006;6.512;2023-04-06T10:04:21;15.10;74.50
60027;DHT22;45891;53.006;6.512;2023-04-06T10:06:24;15.30;74.30
60027;DHT22;45891;53.006;6.512;2023-04-06T10:08:51;16.00;76.00
60027;DHT22;45891;53.006;6.512;2023-04-06T10:11:19;16.10;74.50
60027;DHT22;45891;53.006;6.512;2023-04-06T10:13:46;15.90;74.10
60027;DHT22;45891;53.006;6.512;2023-04-06T10:16:13;15.30;73.60
60027;DHT22;45891;53.006;6.512;2023-04-06T10:18:40;15.40;73.80
60027;DHT22;45891;53.006;6.512;2023-04-06T10:21:08;15.80;76.10
60027;DHT22;45891;53.006;6.512;2023-04-06T10:23:40;16.50;76.70
60027;DHT22;45891;53.006;6.512;2023-04-06T10:26:12;16.20;73.20
60027;DHT22;45891;53.006;6.512;2023-04-06T10:28:40;16.00;74.10
60027;DHT22;45891;53.006;6.512;2023-04-06T10:31:07;16.20;75.90
60027;DHT22;45891;53.006;6.512;2023-04-06T10:33:33;16.60;75.10
60027;DHT22;45891;53.006;6.512;2023-04-06T10:36:12;16.90;74.20
60027;DHT22;45891;53.006;6.512;2023-04-06T10:38:38;17.00;73.10
60027;DHT22;45891;53.006;6.512;2023-04-06T10:41:05;16.70;73.40
60027;DHT22;45891;53.006;6.512;2023-04-06T10:43:35;16.90;75.10
60027;DHT22;45891;53.006;6.512;2023-04-06T10:46:02;17.50;74.30
60027;DHT22;45891;53.006;6.512;2023-04-06T10:48:38;18.10;74.50
60027;DHT22;45891;53.006;6.512;2023-04-06T10:51:14;18.20;70.80
60027;DHT22;45891;53.006;6.512;2023-04-06T10:53:44;18.20;73.80
60027;DHT22;45891;53.006;6.512;2023-04-06T10:56:11;17.90;70.40
60027;DHT22;45891;53.006;6.512;2023-04-06T10:58:37;17.50;72.20
60027;DHT22;45891;53.006;6.512;2023-04-06T11:01:03;17.60;72.20
60027;DHT22;45891;53.006;6.512;2023-04-06T11:03:30;17.60;71.70
60027;DHT22;45891;53.006;6.512;2023-04-06T11:05:57;17.30;72.90
60027;DHT22;45891;53.006;6.512;2023-04-06T11:08:30;17.60;72.40
60027;DHT22;45891;53.006;6.512;2023-04-06T11:11:06;17.80;72.20
60027;DHT22;45891;53.006;6.512;2023-04-06T11:13:43;17.90;73.30
60027;DHT22;45891;53.006;6.512;2023-04-06T11:16:15;18.00;73.00
60027;DHT22;45891;53.006;6.512;2023-04-06T11:18:51;18.10;73.80
60027;DHT22;45891;53.006;6.512;2023-04-06T11:21:19;18.10;71.00
60027;DHT22;45891;53.006;6.512;2023-04-06T11:23:45;17.70;70.00
60027;DHT22;45891;53.006;6.512;2023-04-06T11:26:12;16.90;69.50
60027;DHT22;45891;53.006;6.512;2023-04-06T11:28:39;16.00;69.20
60027;DHT22;45891;53.006;6.512;2023-04-06T11:31:05;15.10;70.90
60027;DHT22;45891;53.006;6.512;2023-04-06T11:33:38;15.10;71.10
60027;DHT22;45891;53.006;6.512;2023-04-06T11:36:04;15.00;70.90
60027;DHT22;45891;53.006;6.512;2023-04-06T11:38:31;15.00;71.20
60027;DHT22;45891;53.006;6.512;2023-04-06T11:40:57;14.90;71.80
60027;DHT22;45891;53.006;6.512;2023-04-06T11:43:27;15.10;72.60
60027;DHT22;45891;53.006;6.512;2023-04-06T11:45:59;14.70;71.20
60027;DHT22;45891;53.006;6.512;2023-04-06T11:48:25;14.50;71.00
60027;DHT22;45891;53.006;6.512;2023-04-06T11:50:55;14.40;71.40
60027;DHT22;45891;53.006;6.512;2023-04-06T11:53:21;14.40;71.50
60027;DHT22;45891;53.006;6.512;2023-04-06T11:55:47;14.30;71.60
60027;DHT22;45891;53.006;6.512;2023-04-06T11:58:13;14.50;70.90
60027;DHT22;45891;53.006;6.512;2023-04-06T12:00:39;14.60;72.00
60027;DHT22;45891;53.006;6.512;2023-04-06T12:03:04;14.70;71.00
60027;DHT22;45891;53.006;6.512;2023-04-06T12:05:32;15.00;72.00
60027;DHT22;45891;53.006;6.512;2023-04-06T12:07:58;15.40;72.10
60027;DHT22;45891;53.006;6.512;2023-04-06T12:10:24;15.40;71.10
60027;DHT22;45891;53.006;6.512;2023-04-06T12:12:50;15.50;71.30
60027;DHT22;45891;53.006;6.512;2023-04-06T12:15:16;15.30;70.00
60027;DHT22;45891;53.006;6.512;2023-04-06T12:17:42;15.10;70.60
60027;DHT22;45891;53.006;6.512;2023-04-06T12:20:08;15.00;70.00
60027;DHT22;45891;53.006;6.512;2023-04-06T12:22:34;15.10;70.80
60027;DHT22;45891;53.006;6.512;2023-04-06T12:25:00;15.00;71.40
60027;DHT22;45891;53.006;6.512;2023-04-06T12:27:26;14.90;70.60
60027;DHT22;45891;53.006;6.512;2023-04-06T12:29:52;14.80;71.60
60027;DHT22;45891;53.006;6.512;2023-04-06T12:32:19;15.00;71.90
60027;DHT22;45891;53.006;6.512;2023-04-06T12:34:45;15.40;72.40
60027;DHT22;45891;53.006;6.512;2023-04-06T12:37:11;15.70;72.20
60027;DHT22;45891;53.006;6.512;2023-04-06T12:39:37;16.00;72.70
60027;DHT22;45891;53.006;6.512;2023-04-06T12:42:03;16.40;72.50
60027;DHT22;45891;53.006;6.512;2023-04-06T12:44:29;16.40;70.80
60027;DHT22;45891;53.006;6.512;2023-04-06T12:46:55;15.90;70.20
60027;DHT22;45891;53.006;6.512;2023-04-06T12:49:21;15.60;71.20
60027;DHT22;45891;53.006;6.512;2023-04-06T12:51:47;15.80;72.30
60027;DHT22;45891;53.006;6.512;2023-04-06T12:54:13;15.80;70.50
60027;DHT22;45891;53.006;6.512;2023-04-06T12:56:39;15.60;71.00
60027;DHT22;45891;53.006;6.512;2023-04-06T12:59:05;15.40;70.60
60027;DHT22;45891;53.006;6.512;2023-04-06T13:01:31;14.90;70.40
60027;DHT22;45891;53.006;6.512;2023-04-06T13:03:58;14.70;71.80
60027;DHT22;45891;53.006;6.512;2023-04-06T13:06:25;14.40;71.40
60027;DHT22;45891;53.006;6.512;2023-04-06T13:08:54;14.40;72.30
60027;DHT22;45891;53.006;6.512;2023-04-06T13:11:20;14.50;72.90
60027;DHT22;45891;53.006;6.512;2023-04-06T13:13:47;14.60;72.60
60027;DHT22;45891;53.006;6.512;2023-04-06T13:16:13;14.60;72.10
60027;DHT22;45891;53.006;6.512;2023-04-06T13:18:39;14.70;72.30
60027;DHT22;45891;53.006;6.512;2023-04-06T13:21:06;14.90;73.00
60027;DHT22;45891;53.006;6.512;2023-04-06T13:23:32;14.90;73.30
60027;DHT22;45891;53.006;6.512;2023-04-06T13:28:25;14.00;72.50
60027;DHT22;45891;53.006;6.512;2023-04-06T13:30:52;14.00;74.00
60027;DHT22;45891;53.006;6.512;2023-04-06T13:33:18;13.90;74.30
60027;DHT22;45891;53.006;6.512;2023-04-06T13:35:44;13.90;74.60
60027;DHT22;45891;53.006;6.512;2023-04-06T13:38:10;13.80;75.10
60027;DHT22;45891;53.006;6.512;2023-04-06T13:40:38;13.70;75.80
60027;DHT22;45891;53.006;6.512;2023-04-06T13:43:04;13.80;76.50
60027;DHT22;45891;53.006;6.512;2023-04-06T13:45:31;13.70;76.90
60027;DHT22;45891;53.006;6.512;2023-04-06T13:47:57;13.60;77.10
60027;DHT22;45891;53.006;6.512;2023-04-06T13:50:25;13.60;77.50
60027;DHT22;45891;53.006;6.512;2023-04-06T13:52:51;13.50;78.30
60027;DHT22;45891;53.006;6.512;2023-04-06T13:55:16;13.40;77.20
60027;DHT22;45891;53.006;6.512;2023-04-06T13:57:42;13.30;78.40
60027;DHT22;45891;53.006;6.512;2023-04-06T14:00:08;13.20;79.30
60027;DHT22;45891;53.006;6.512;2023-04-06T14:02:37;13.20;79.70
60027;DHT22;45891;53.006;6.512;2023-04-06T14:05:03;13.20;80.30
60027;DHT22;45891;53.006;6.512;2023-04-06T14:07:29;13.20;80.80
60027;DHT22;45891;53.006;6.512;2023-04-06T14:09:55;13.10;81.20
60027;DHT22;45891;53.006;6.512;2023-04-06T14:12:21;13.10;81.30
60027;DHT22;45891;53.006;6.512;2023-04-06T14:14:47;13.20;82.20
60027;DHT22;45891;53.006;6.512;2023-04-06T14:17:13;13.10;80.80
60027;DHT22;45891;53.006;6.512;2023-04-06T14:19:39;12.90;81.20
60027;DHT22;45891;53.006;6.512;2023-04-06T14:22:05;12.80;82.20
60027;DHT22;45891;53.006;6.512;2023-04-06T14:24:31;12.80;82.20
60027;DHT22;45891;53.006;6.512;2023-04-06T14:26:57;12.80;83.30
60027;DHT22;45891;53.006;6.512;2023-04-06T14:29:23;12.80;84.10
60027;DHT22;45891;53.006;6.512;2023-04-06T14:31:49;12.80;84.70
60027;DHT22;45891;53.006;6.512;2023-04-06T14:34:15;12.50;85.00
60027;DHT22;45891;53.006;6.512;2023-04-06T14:36:42;12.60;85.60
60027;DHT22;45891;53.006;6.512;2023-04-06T14:39:08;12.60;85.40
60027;DHT22;45891;53.006;6.512;2023-04-06T14:41:35;12.40;85.50
60027;DHT22;45891;53.006;6.512;2023-04-06T14:44:01;12.20;86.20
60027;DHT22;45891;53.006;6.512;2023-04-06T14:46:27;11.90;85.10
60027;DHT22;45891;53.006;6.512;2023-04-06T14:48:57;11.70;86.00
60027;DHT22;45891;53.006;6.512;2023-04-06T14:51:24;11.90;86.50
60027;DHT22;45891;53.006;6.512;2023-04-06T14:53:51;11.80;87.30
60027;DHT22;45891;53.006;6.512;2023-04-06T14:56:21;11.80;87.40
60027;DHT22;45891;53.006;6.512;2023-04-06T14:58:47;11.60;86.80
60027;DHT22;45891;53.006;6.512;2023-04-06T15:01:13;11.60;87.20
60027;DHT22;45891;53.006;6.512;2023-04-06T15:03:38;11.60;87.50
60027;DHT22;45891;53.006;6.512;2023-04-06T15:06:05;11.30;88.70
60027;DHT22;45891;53.006;6.512;2023-04-06T15:08:32;11.30;90.00
60027;DHT22;45891;53.006;6.512;2023-04-06T15:10:59;11.20;90.50
60027;DHT22;45891;53.006;6.512;2023-04-06T15:13:25;11.20;90.70
60027;DHT22;45891;53.006;6.512;2023-04-06T15:15:51;11.30;90.70
60027;DHT22;45891;53.006;6.512;2023-04-06T15:18:17;11.30;91.20
60027;DHT22;45891;53.006;6.512;2023-04-06T15:20:43;11.10;91.60
60027;DHT22;45891;53.006;6.512;2023-04-06T15:23:09;11.00;92.10
60027;DHT22;45891;53.006;6.512;2023-04-06T15:25:35;10.90;92.50
60027;DHT22;45891;53.006;6.512;2023-04-06T15:28:01;10.90;92.70
60027;DHT22;45891;53.006;6.512;2023-04-06T15:30:27;10.90;93.10
60027;DHT22;45891;53.006;6.512;2023-04-06T15:33:00;10.90;93.60
60027;DHT22;45891;53.006;6.512;2023-04-06T15:35:32;10.90;94.30
60027;DHT22;45891;53.006;6.512;2023-04-06T15:37:59;10.90;95.60
60027;DHT22;45891;53.006;6.512;2023-04-06T15:40:26;10.80;96.20